Allport, Arkansas
Current Conditions -  °F | °C
As of 8:35 AM on Friday 31 Oct 2014 (Local Time) from KSGT Reporting Station
Clear Clear  
Wind Chill: 54°   Ceiling: Unl
Heat Index: 54°   Visibility: 10mi
Dew Point: 45°   Wind: 18mph
Humidity: 72%   Direction: 340°NNW
Pressure: 30.13"   Gusts: 25mph
Location:  34.5894°N, 91.9107°W
Report Text: KSGT 311335Z AUTO 34016G22KT 10SM CLR 12/07 A3013 RMK AO1
Loading
Personal Weather Stations






























Interactive Weather Map New forecast layout! Learn more

10-Day Weather Forecast

Advertisements
Track Severe Weather on mobile